sensor_id;sensor_type;location;lat;lon;timestamp;pressure;altitude;pressure_sealevel;temperature;humidity
6668;BME280;3370;47.712;9.082;2024-02-21T00:01:15;98133.56;;;3.75;100.00
6668;BME280;3370;47.712;9.082;2024-02-21T00:04:02;98139.53;;;3.64;100.00
6668;BME280;3370;47.712;9.082;2024-02-21T00:06:48;98128.50;;;3.72;100.00
6668;BME280;3370;47.712;9.082;2024-02-21T00:09:34;98129.34;;;3.64;100.00
6668;BME280;3370;47.712;9.082;2024-02-21T00:12:20;98126.78;;;3.55;100.00
6668;BME280;3370;47.712;9.082;2024-02-21T00:15:07;98132.75;;;3.45;100.00
6668;BME280;3370;47.712;9.082;2024-02-21T00:17:53;98123.41;;;3.45;100.00
6668;BME280;3370;47.712;9.082;2024-02-21T00:20:39;98122.56;;;3.36;100.00
6668;BME280;3370;47.712;9.082;2024-02-21T00:23:25;98119.13;;;3.24;100.00
6668;BME280;3370;47.712;9.082;2024-02-21T00:26:12;98117.44;;;3.14;100.00
6668;BME280;3370;47.712;9.082;2024-02-21T00:29:01;98111.53;;;3.29;100.00
6668;BME280;3370;47.712;9.082;2024-02-21T00:31:49;98112.38;;;3.23;100.00
6668;BME280;3370;47.712;9.082;2024-02-21T00:34:35;98106.44;;;3.24;100.00
6668;BME280;3370;47.712;9.082;2024-02-21T00:37:21;98110.66;;;3.09;100.00
6668;BME280;3370;47.712;9.082;2024-02-21T00:40:08;98109.81;;;3.03;100.00
6668;BME280;3370;47.712;9.082;2024-02-21T00:42:54;98100.50;;;3.22;100.00
6668;BME280;3370;47.712;9.082;2024-02-21T00:45:40;98103.88;;;3.18;100.00
6668;BME280;3370;47.712;9.082;2024-02-21T00:48:26;98109.81;;;3.22;100.00
6668;BME280;3370;47.712;9.082;2024-02-21T00:51:12;98096.25;;;3.03;100.00
6668;BME280;3370;47.712;9.082;2024-02-21T00:53:58;98094.56;;;3.10;100.00
6668;BME280;3370;47.712;9.082;2024-02-21T00:56:44;98090.31;;;2.95;100.00
6668;BME280;3370;47.712;9.082;2024-02-21T00:59:30;98095.41;;;2.98;100.00
6668;BME280;3370;47.712;9.082;2024-02-21T01:02:16;98081.81;;;2.99;100.00
6668;BME280;3370;47.712;9.082;2024-02-21T01:05:02;98084.38;;;3.00;100.00
6668;BME280;3370;47.712;9.082;2024-02-21T01:07:49;98082.69;;;2.95;100.00
6668;BME280;3370;47.712;9.082;2024-02-21T01:10:35;98079.28;;;2.94;100.00
6668;BME280;3370;47.712;9.082;2024-02-21T01:13:21;98073.34;;;2.94;100.00
6668;BME280;3370;47.712;9.082;2024-02-21T01:16:07;98074.22;;;2.93;100.00
6668;BME280;3370;47.712;9.082;2024-02-21T01:18:53;98082.69;;;2.96;100.00
6668;BME280;3370;47.712;9.082;2024-02-21T01:21:39;98072.53;;;2.96;100.00
6668;BME280;3370;47.712;9.082;2024-02-21T01:24:25;98073.38;;;2.98;100.00
6668;BME280;3370;47.712;9.082;2024-02-21T01:27:11;98063.22;;;3.00;100.00
6668;BME280;3370;47.712;9.082;2024-02-21T01:29:57;98071.66;;;2.93;100.00
6668;BME280;3370;47.712;9.082;2024-02-21T01:32:43;98072.50;;;2.92;100.00
6668;BME280;3370;47.712;9.082;2024-02-21T01:35:29;98076.75;;;3.08;100.00
6668;BME280;3370;47.712;9.082;2024-02-21T01:38:15;98073.41;;;3.12;100.00
6668;BME280;3370;47.712;9.082;2024-02-21T01:41:01;98073.38;;;3.03;100.00
6668;BME280;3370;47.712;9.082;2024-02-21T01:43:47;98069.13;;;2.94;100.00
6668;BME280;3370;47.712;9.082;2024-02-21T01:46:34;98060.66;;;2.95;100.00
6668;BME280;3370;47.712;9.082;2024-02-21T01:49:21;98058.09;;;2.87;100.00
6668;BME280;3370;47.712;9.082;2024-02-21T01:52:08;98058.94;;;2.83;100.00
6668;BME280;3370;47.712;9.082;2024-02-21T01:54:54;98054.72;;;2.84;100.00
6668;BME280;3370;47.712;9.082;2024-02-21T01:57:42;98042.00;;;2.85;100.00
6668;BME280;3370;47.712;9.082;2024-02-21T02:00:28;98040.31;;;2.89;100.00
6668;BME280;3370;47.712;9.082;2024-02-21T02:03:15;98039.47;;;2.92;100.00
6668;BME280;3370;47.712;9.082;2024-02-21T02:06:06;98028.47;;;2.99;100.00
6668;BME280;3370;47.712;9.082;2024-02-21T02:08:53;98027.63;;;3.00;100.00
6668;BME280;3370;47.712;9.082;2024-02-21T02:11:40;98022.53;;;2.97;100.00
6668;BME280;3370;47.712;9.082;2024-02-21T02:14:26;98020.00;;;2.97;100.00
6668;BME280;3370;47.712;9.082;2024-02-21T02:17:12;98016.63;;;2.96;100.00
6668;BME280;3370;47.712;9.082;2024-02-21T02:19:58;98009.00;;;3.01;100.00
6668;BME280;3370;47.712;9.082;2024-02-21T02:22:47;98012.38;;;3.00;100.00
6668;BME280;3370;47.712;9.082;2024-02-21T02:25:38;98003.06;;;3.08;100.00
6668;BME280;3370;47.712;9.082;2024-02-21T02:28:24;98001.38;;;3.13;100.00
6668;BME280;3370;47.712;9.082;2024-02-21T02:31:11;98005.59;;;3.08;100.00
6668;BME280;3370;47.712;9.082;2024-02-21T02:33:57;97999.69;;;3.20;100.00
6668;BME280;3370;47.712;9.082;2024-02-21T02:36:43;97996.28;;;3.33;100.00
6668;BME280;3370;47.712;9.082;2024-02-21T02:39:29;98004.75;;;3.40;100.00
6668;BME280;3370;47.712;9.082;2024-02-21T02:42:15;97990.34;;;3.36;100.00
6668;BME280;3370;47.712;9.082;2024-02-21T02:45:01;97984.44;;;3.32;100.00
6668;BME280;3370;47.712;9.082;2024-02-21T02:47:47;97989.53;;;3.11;100.00
6668;BME280;3370;47.712;9.082;2024-02-21T02:50:33;97988.69;;;3.10;100.00
6668;BME280;3370;47.712;9.082;2024-02-21T02:53:19;97985.28;;;3.14;100.00
6668;BME280;3370;47.712;9.082;2024-02-21T02:56:05;97968.34;;;3.04;100.00
6668;BME280;3370;47.712;9.082;2024-02-21T02:58:51;97964.97;;;3.02;100.00
6668;BME280;3370;47.712;9.082;2024-02-21T03:01:37;97958.19;;;2.98;100.00
6668;BME280;3370;47.712;9.082;2024-02-21T03:04:24;97962.44;;;2.96;100.00
6668;BME280;3370;47.712;9.082;2024-02-21T03:07:10;97970.91;;;2.98;100.00
6668;BME280;3370;47.712;9.082;2024-02-21T03:09:57;97972.59;;;3.03;100.00
6668;BME280;3370;47.712;9.082;2024-02-21T03:12:43;97957.34;;;3.05;100.00
6668;BME280;3370;47.712;9.082;2024-02-21T03:15:29;97949.69;;;3.11;100.00
6668;BME280;3370;47.712;9.082;2024-02-21T03:22:17;97944.63;;;3.26;100.00
6668;BME280;3370;47.712;9.082;2024-02-21T03:25:04;97936.13;;;3.17;100.00
6668;BME280;3370;47.712;9.082;2024-02-21T03:27:50;97930.22;;;3.13;100.00
6668;BME280;3370;47.712;9.082;2024-02-21T03:30:36;97928.53;;;3.21;100.00
6668;BME280;3370;47.712;9.082;2024-02-21T03:33:22;97921.75;;;3.16;100.00
6668;BME280;3370;47.712;9.082;2024-02-21T03:36:15;97919.19;;;3.08;100.00
6668;BME280;3370;47.712;9.082;2024-02-21T03:39:01;97920.91;;;3.07;100.00
6668;BME280;3370;47.712;9.082;2024-02-21T03:41:49;97903.97;;;3.05;100.00
6668;BME280;3370;47.712;9.082;2024-02-21T03:44:35;97902.28;;;3.07;100.00
6668;BME280;3370;47.712;9.082;2024-02-21T03:47:21;97900.59;;;3.11;100.00
6668;BME280;3370;47.712;9.082;2024-02-21T03:50:07;97897.19;;;3.18;100.00
6668;BME280;3370;47.712;9.082;2024-02-21T03:52:53;97882.78;;;3.21;100.00
6668;BME280;3370;47.712;9.082;2024-02-21T03:55:39;97892.03;;;3.35;100.00
6668;BME280;3370;47.712;9.082;2024-02-21T03:58:26;97886.94;;;3.49;100.00
6668;BME280;3370;47.712;9.082;2024-02-21T04:01:12;97883.50;;;3.51;100.00
6668;BME280;3370;47.712;9.082;2024-02-21T04:03:58;97883.63;;;3.26;100.00
6668;BME280;3370;47.712;9.082;2024-02-21T04:06:48;97872.56;;;3.24;100.00
6668;BME280;3370;47.712;9.082;2024-02-21T04:09:35;97863.31;;;3.14;100.00
6668;BME280;3370;47.712;9.082;2024-02-21T04:12:21;97864.13;;;3.27;100.00
6668;BME280;3370;47.712;9.082;2024-02-21T04:15:07;97861.53;;;3.33;100.00
6668;BME280;3370;47.712;9.082;2024-02-21T04:17:53;97855.63;;;3.33;100.00
6668;BME280;3370;47.712;9.082;2024-02-21T04:20:39;97853.09;;;3.26;100.00
6668;BME280;3370;47.712;9.082;2024-02-21T04:23:25;97854.81;;;3.21;100.00
6668;BME280;3370;47.712;9.082;2024-02-21T04:26:11;97850.59;;;3.11;100.00
6668;BME280;3370;47.712;9.082;2024-02-21T04:28:57;97851.47;;;2.95;100.00
6668;BME280;3370;47.712;9.082;2024-02-21T04:31:43;97859.91;;;3.06;100.00
6668;BME280;3370;47.712;9.082;2024-02-21T04:34:30;97855.69;;;3.17;100.00
6668;BME280;3370;47.712;9.082;2024-02-21T04:37:16;97859.09;;;2.96;100.00
6668;BME280;3370;47.712;9.082;2024-02-21T04:40:02;97859.94;;;3.03;100.00
6668;BME280;3370;47.712;9.082;2024-02-21T04:42:48;97864.19;;;2.95;100.00
6668;BME280;3370;47.712;9.082;2024-02-21T04:45:34;97863.34;;;2.91;100.00
6668;BME280;3370;47.712;9.082;2024-02-21T04:48:20;97861.63;;;2.92;100.00
6668;BME280;3370;47.712;9.082;2024-02-21T04:51:07;97865.91;;;2.85;100.00
6668;BME280;3370;47.712;9.082;2024-02-21T04:53:53;97865.91;;;2.82;100.00
6668;BME280;3370;47.712;9.082;2024-02-21T04:56:40;97860.81;;;2.85;100.00
6668;BME280;3370;47.712;9.082;2024-02-21T04:59:26;97859.09;;;3.04;100.00
6668;BME280;3370;47.712;9.082;2024-02-21T05:02:12;97848.88;;;3.25;100.00
6668;BME280;3370;47.712;9.082;2024-02-21T05:04:58;97844.63;;;3.28;100.00
6668;BME280;3370;47.712;9.082;2024-02-21T05:07:44;97826.88;;;3.06;100.00
6668;BME280;3370;47.712;9.082;2024-02-21T05:10:30;97819.34;;;2.81;100.00
6668;BME280;3370;47.712;9.082;2024-02-21T05:13:16;97810.03;;;2.71;100.00
6668;BME280;3370;47.712;9.082;2024-02-21T05:16:02;97802.41;;;2.68;100.00
6668;BME280;3370;47.712;9.082;2024-02-21T05:18:48;97810.91;;;2.68;100.00
6668;BME280;3370;47.712;9.082;2024-02-21T05:21:34;97806.66;;;2.66;100.00
6668;BME280;3370;47.712;9.082;2024-02-21T05:24:20;97810.88;;;2.78;100.00
6668;BME280;3370;47.712;9.082;2024-02-21T05:27:07;97809.19;;;2.80;100.00
6668;BME280;3370;47.712;9.082;2024-02-21T05:29:54;97804.91;;;2.91;100.00
6668;BME280;3370;47.712;9.082;2024-02-21T05:32:40;97800.69;;;2.85;100.00
6668;BME280;3370;47.712;9.082;2024-02-21T05:35:29;97799.00;;;2.87;100.00
6668;BME280;3370;47.712;9.082;2024-02-21T05:38:15;97787.16;;;2.77;100.00
6668;BME280;3370;47.712;9.082;2024-02-21T05:41:02;97777.00;;;2.77;100.00
6668;BME280;3370;47.712;9.082;2024-02-21T05:43:48;97772.72;;;2.99;100.00
6668;BME280;3370;47.712;9.082;2024-02-21T05:46:34;97764.19;;;3.14;100.00
6668;BME280;3370;47.712;9.082;2024-02-21T05:49:21;97771.84;;;3.02;100.00
6668;BME280;3370;47.712;9.082;2024-02-21T05:52:07;97786.25;;;2.97;100.00
6668;BME280;3370;47.712;9.082;2024-02-21T05:54:53;97778.63;;;3.00;100.00
6668;BME280;3370;47.712;9.082;2024-02-21T05:57:39;97778.66;;;2.89;100.00
6668;BME280;3370;47.712;9.082;2024-02-21T06:00:25;97776.16;;;2.77;100.00
6668;BME280;3370;47.712;9.082;2024-02-21T06:03:11;97773.63;;;2.77;100.00
6668;BME280;3370;47.712;9.082;2024-02-21T06:05:59;97774.47;;;2.68;100.00
6668;BME280;3370;47.712;9.082;2024-02-21T06:08:45;97782.09;;;2.74;100.00
6668;BME280;3370;47.712;9.082;2024-02-21T06:11:31;97785.47;;;2.76;100.00
6668;BME280;3370;47.712;9.082;2024-02-21T06:14:17;97773.63;;;2.78;100.00
6668;BME280;3370;47.712;9.082;2024-02-21T06:17:04;97771.06;;;2.80;100.00
6668;BME280;3370;47.712;9.082;2024-02-21T06:19:50;97758.34;;;2.92;100.00
6668;BME280;3370;47.712;9.082;2024-02-21T06:22:36;97743.09;;;2.84;100.00
6668;BME280;3370;47.712;9.082;2024-02-21T06:25:22;97749.88;;;2.84;100.00
6668;BME280;3370;47.712;9.082;2024-02-21T06:28:08;97745.69;;;2.67;100.00
6668;BME280;3370;47.712;9.082;2024-02-21T06:30:54;97745.69;;;2.66;100.00
6668;BME280;3370;47.712;9.082;2024-02-21T06:33:41;97749.97;;;2.58;100.00
6668;BME280;3370;47.712;9.082;2024-02-21T06:36:27;97754.19;;;2.62;100.00
6668;BME280;3370;47.712;9.082;2024-02-21T06:39:13;97754.19;;;2.65;100.00
6668;BME280;3370;47.712;9.082;2024-02-21T06:41:59;97761.81;;;2.65;100.00
6668;BME280;3370;47.712;9.082;2024-02-21T06:44:45;97757.53;;;2.70;100.00
6668;BME280;3370;47.712;9.082;2024-02-21T06:47:31;97749.94;;;2.61;100.00
6668;BME280;3370;47.712;9.082;2024-02-21T06:50:17;97748.22;;;2.75;100.00
6668;BME280;3370;47.712;9.082;2024-02-21T06:53:03;97740.59;;;2.80;100.00
6668;BME280;3370;47.712;9.082;2024-02-21T06:55:49;97741.44;;;2.80;100.00
6668;BME280;3370;47.712;9.082;2024-02-21T06:58:36;97734.56;;;3.01;100.00
6668;BME280;3370;47.712;9.082;2024-02-21T07:01:22;97748.06;;;3.15;100.00
6668;BME280;3370;47.712;9.082;2024-02-21T07:04:08;97746.38;;;3.20;100.00
6668;BME280;3370;47.712;9.082;2024-02-21T07:06:54;97751.44;;;3.20;100.00
6668;BME280;3370;47.712;9.082;2024-02-21T07:09:40;97747.28;;;3.05;100.00
6668;BME280;3370;47.712;9.082;2024-02-21T07:12:26;97765.09;;;2.98;100.00
6668;BME280;3370;47.712;9.082;2024-02-21T07:15:12;97758.31;;;3.00;100.00
6668;BME280;3370;47.712;9.082;2024-02-21T07:17:58;97759.97;;;3.07;100.00
6668;BME280;3370;47.712;9.082;2024-02-21T07:20:44;97761.66;;;3.17;100.00
6668;BME280;3370;47.712;9.082;2024-02-21T07:23:30;97760.78;;;3.18;100.00
6668;BME280;3370;47.712;9.082;2024-02-21T07:26:17;97756.53;;;3.20;100.00
6668;BME280;3370;47.712;9.082;2024-02-21T07:29:03;97762.44;;;3.22;100.00
6668;BME280;3370;47.712;9.082;2024-02-21T07:31:49;97753.97;;;3.23;100.00
6668;BME280;3370;47.712;9.082;2024-02-21T07:34:37;97760.69;;;3.41;100.00
6668;BME280;3370;47.712;9.082;2024-02-21T07:37:23;97763.19;;;3.46;100.00
6668;BME280;3370;47.712;9.082;2024-02-21T07:40:16;97758.09;;;3.49;100.00
6668;BME280;3370;47.712;9.082;2024-02-21T07:43:02;97763.16;;;3.52;100.00
6668;BME280;3370;47.712;9.082;2024-02-21T07:45:48;97759.66;;;3.72;100.00
6668;BME280;3370;47.712;9.082;2024-02-21T07:48:34;97756.31;;;3.67;100.00
6668;BME280;3370;47.712;9.082;2024-02-21T07:51:20;97760.56;;;3.60;100.00
6668;BME280;3370;47.712;9.082;2024-02-21T07:54:06;97751.28;;;3.57;100.00
6668;BME280;3370;47.712;9.082;2024-02-21T07:56:52;97741.03;;;3.67;100.00
6668;BME280;3370;47.712;9.082;2024-02-21T07:59:39;97747.72;;;3.77;100.00
6668;BME280;3370;47.712;9.082;2024-02-21T08:02:25;97736.84;;;3.56;100.00
6668;BME280;3370;47.712;9.082;2024-02-21T08:05:11;97730.94;;;3.50;100.00
6668;BME280;3370;47.712;9.082;2024-02-21T08:07:58;97719.13;;;3.44;100.00
6668;BME280;3370;47.712;9.082;2024-02-21T08:10:44;97715.72;;;3.48;100.00
6668;BME280;3370;47.712;9.082;2024-02-21T08:13:30;97719.09;;;3.50;100.00
6668;BME280;3370;47.712;9.082;2024-02-21T08:16:17;97718.97;;;3.69;100.00
6668;BME280;3370;47.712;9.082;2024-02-21T08:19:03;97713.88;;;3.70;100.00
6668;BME280;3370;47.712;9.082;2024-02-21T08:21:50;97713.91;;;3.69;100.00
6668;BME280;3370;47.712;9.082;2024-02-21T08:24:36;97712.09;;;3.83;100.00
6668;BME280;3370;47.712;9.082;2024-02-21T08:27:22;97715.53;;;3.79;100.00
6668;BME280;3370;47.712;9.082;2024-02-21T08:30:08;97714.56;;;3.91;100.00
6668;BME280;3370;47.712;9.082;2024-02-21T08:32:55;97714.66;;;3.77;100.00
6668;BME280;3370;47.712;9.082;2024-02-21T08:35:41;97724.81;;;3.81;100.00
6668;BME280;3370;47.712;9.082;2024-02-21T08:38:27;97718.91;;;3.81;100.00
6668;BME280;3370;47.712;9.082;2024-02-21T08:41:13;97714.59;;;3.89;100.00
6668;BME280;3370;47.712;9.082;2024-02-21T08:44:00;97718.84;;;3.87;100.00
6668;BME280;3370;47.712;9.082;2024-02-21T08:46:46;97716.22;;;3.96;100.00
6668;BME280;3370;47.712;9.082;2024-02-21T08:49:33;97712.03;;;3.89;100.00
6668;BME280;3370;47.712;9.082;2024-02-21T08:52:19;97706.88;;;3.98;100.00
6668;BME280;3370;47.712;9.082;2024-02-21T08:55:06;97698.41;;;3.99;100.00
6668;BME280;3370;47.712;9.082;2024-02-21T08:57:52;97700.03;;;4.07;100.00
6668;BME280;3370;47.712;9.082;2024-02-21T09:00:38;97700.56;;;4.41;100.00
6668;BME280;3370;47.712;9.082;2024-02-21T09:03:24;97688.41;;;4.66;100.00
6668;BME280;3370;47.712;9.082;2024-02-21T09:06:12;97687.50;;;4.70;100.00
6668;BME280;3370;47.712;9.082;2024-02-21T09:08:59;97687.38;;;4.83;100.00
6668;BME280;3370;47.712;9.082;2024-02-21T09:11:45;97683.91;;;4.87;100.00
6668;BME280;3370;47.712;9.082;2024-02-21T09:14:36;97684.13;;;4.68;100.00
6668;BME280;3370;47.712;9.082;2024-02-21T09:17:23;97684.97;;;4.70;100.00
6668;BME280;3370;47.712;9.082;2024-02-21T09:20:11;97682.22;;;4.86;100.00
6668;BME280;3370;47.712;9.082;2024-02-21T09:22:57;97673.31;;;5.17;100.00
6668;BME280;3370;47.712;9.082;2024-02-21T09:25:43;97675.66;;;5.33;100.00
6668;BME280;3370;47.712;9.082;2024-02-21T09:28:30;97664.41;;;5.49;100.00
6668;BME280;3370;47.712;9.082;2024-02-21T09:31:16;97659.78;;;5.71;100.00
6668;BME280;3370;47.712;9.082;2024-02-21T09:34:02;97659.78;;;5.71;100.00
6668;BME280;3370;47.712;9.082;2024-02-21T09:36:48;97664.00;;;5.72;100.00
6668;BME280;3370;47.712;9.082;2024-02-21T09:39:34;97661.63;;;5.63;100.00
6668;BME280;3370;47.712;9.082;2024-02-21T09:42:21;97653.09;;;5.66;100.00
6668;BME280;3370;47.712;9.082;2024-02-21T09:45:25;97650.41;;;5.73;100.00
6668;BME280;3370;47.712;9.082;2024-02-21T09:51:01;97660.41;;;5.86;100.00
6668;BME280;3370;47.712;9.082;2024-02-21T09:53:49;97644.31;;;5.82;100.00
6668;BME280;3370;47.712;9.082;2024-02-21T09:56:36;97649.31;;;5.88;100.00
6668;BME280;3370;47.712;9.082;2024-02-21T09:59:24;97648.59;;;5.80;100.00
6668;BME280;3370;47.712;9.082;2024-02-21T10:02:10;97641.28;;;6.13;100.00
6668;BME280;3370;47.712;9.082;2024-02-21T10:04:57;97638.81;;;6.05;98.38
6668;BME280;3370;47.712;9.082;2024-02-21T10:07:44;97636.84;;;6.21;98.39
6668;BME280;3370;47.712;9.082;2024-02-21T10:10:41;97636.69;;;6.30;95.52
6668;BME280;3370;47.712;9.082;2024-02-21T10:13:30;97633.06;;;6.42;92.82
6668;BME280;3370;47.712;9.082;2024-02-21T10:16:17;97623.31;;;6.61;95.14
6668;BME280;3370;47.712;9.082;2024-02-21T10:19:03;97620.91;;;6.53;93.51
6668;BME280;3370;47.712;9.082;2024-02-21T10:22:07;97624.75;;;6.75;94.55
6668;BME280;3370;47.712;9.082;2024-02-21T10:24:53;97616.91;;;6.84;86.04
6668;BME280;3370;47.712;9.082;2024-02-21T10:27:40;97612.41;;;6.95;84.62
6668;BME280;3370;47.712;9.082;2024-02-21T10:30:27;97620.81;;;7.00;82.43
6668;BME280;3370;47.712;9.082;2024-02-21T10:33:16;97611.28;;;7.07;78.93
6668;BME280;3370;47.712;9.082;2024-02-21T10:36:11;97588.72;;;7.24;78.43
6668;BME280;3370;47.712;9.082;2024-02-21T10:38:58;97601.00;;;7.47;79.21
6668;BME280;3370;47.712;9.082;2024-02-21T10:41:44;97592.00;;;7.67;78.18
6668;BME280;3370;47.712;9.082;2024-02-21T10:44:32;97588.28;;;7.79;76.51
6668;BME280;3370;47.712;9.082;2024-02-21T10:47:19;97581.88;;;7.95;75.40
6668;BME280;3370;47.712;9.082;2024-02-21T10:50:10;97576.56;;;8.03;75.78
6668;BME280;3370;47.712;9.082;2024-02-21T10:56:31;97556.38;;;8.23;75.72
6668;BME280;3370;47.712;9.082;2024-02-21T10:59:21;97556.81;;;8.06;73.28
6668;BME280;3370;47.712;9.082;2024-02-21T11:02:09;97558.78;;;7.97;76.09
6668;BME280;3370;47.712;9.082;2024-02-21T11:04:56;97551.41;;;8.17;77.61
6668;BME280;3370;47.712;9.082;2024-02-21T11:07:43;97547.63;;;8.31;77.45
6668;BME280;3370;47.712;9.082;2024-02-21T11:10:29;97550.50;;;8.51;76.89
6668;BME280;3370;47.712;9.082;2024-02-21T11:13:15;97545.59;;;8.73;74.46
6668;BME280;3370;47.712;9.082;2024-02-21T11:16:08;97547.16;;;8.77;72.81
6668;BME280;3370;47.712;9.082;2024-02-21T11:21:55;97520.84;;;9.27;76.96
6668;BME280;3370;47.712;9.082;2024-02-21T11:24:42;97515.44;;;9.87;69.94
6668;BME280;3370;47.712;9.082;2024-02-21T11:27:34;97509.28;;;10.16;69.70
6668;BME280;3370;47.712;9.082;2024-02-21T11:30:27;97493.78;;;10.43;70.33
6668;BME280;3370;47.712;9.082;2024-02-21T11:33:13;97486.88;;;10.43;66.56
6668;BME280;3370;47.712;9.082;2024-02-21T11:35:59;97476.81;;;10.61;66.93
6668;BME280;3370;47.712;9.082;2024-02-21T11:38:45;97475.09;;;11.04;68.14
6668;BME280;3370;47.712;9.082;2024-02-21T11:41:31;97468.31;;;11.44;64.79
6668;BME280;3370;47.712;9.082;2024-02-21T11:44:18;97466.00;;;11.58;61.26
6668;BME280;3370;47.712;9.082;2024-02-21T11:47:04;97453.97;;;11.38;62.73
6668;BME280;3370;47.712;9.082;2024-02-21T11:49:51;97443.44;;;12.42;60.11
6668;BME280;3370;47.712;9.082;2024-02-21T11:52:39;97433.00;;;12.07;59.20
6668;BME280;3370;47.712;9.082;2024-02-21T11:55:25;97430.63;;;12.22;59.40
6668;BME280;3370;47.712;9.082;2024-02-21T11:58:11;97430.25;;;12.49;60.65
6668;BME280;3370;47.712;9.082;2024-02-21T12:00:58;97415.31;;;12.19;60.38
6668;BME280;3370;47.712;9.082;2024-02-21T12:03:44;97425.88;;;12.13;59.20
6668;BME280;3370;47.712;9.082;2024-02-21T12:06:35;97411.81;;;12.20;57.94
6668;BME280;3370;47.712;9.082;2024-02-21T12:09:24;97405.13;;;12.16;58.85
6668;BME280;3370;47.712;9.082;2024-02-21T12:12:10;97394.94;;;12.13;58.17
6668;BME280;3370;47.712;9.082;2024-02-21T12:14:56;97388.03;;;12.32;58.58
6668;BME280;3370;47.712;9.082;2024-02-21T12:17:45;97380.78;;;12.77;58.57
6668;BME280;3370;47.712;9.082;2024-02-21T12:20:31;97379.31;;;12.89;57.09
6668;BME280;3370;47.712;9.082;2024-02-21T12:23:18;97370.09;;;13.02;56.61
6668;BME280;3370;47.712;9.082;2024-02-21T12:26:05;97371.13;;;12.80;56.52
6668;BME280;3370;47.712;9.082;2024-02-21T12:28:51;97372.97;;;13.13;57.36
6668;BME280;3370;47.712;9.082;2024-02-21T12:31:38;97355.19;;;12.55;55.53
6668;BME280;3370;47.712;9.082;2024-02-21T12:34:24;97358.44;;;12.58;56.39
6668;BME280;3370;47.712;9.082;2024-02-21T12:37:12;97349.78;;;12.59;56.87
6668;BME280;3370;47.712;9.082;2024-02-21T12:40:01;97343.66;;;12.97;56.84
6668;BME280;3370;47.712;9.082;2024-02-21T12:42:52;97345.78;;;13.06;56.38
6668;BME280;3370;47.712;9.082;2024-02-21T12:45:38;97344.19;;;13.03;56.69
6668;BME280;3370;47.712;9.082;2024-02-21T12:48:24;97332.34;;;12.82;55.90
6668;BME280;3370;47.712;9.082;2024-02-21T12:51:10;97312.47;;;13.68;56.52
6668;BME280;3370;47.712;9.082;2024-02-21T12:53:57;97315.97;;;13.83;53.11
6668;BME280;3370;47.712;9.082;2024-02-21T12:56:43;97308.81;;;13.88;53.39
6668;BME280;3370;47.712;9.082;2024-02-21T12:59:30;97306.03;;;13.59;53.96
6668;BME280;3370;47.712;9.082;2024-02-21T13:02:16;97298.69;;;13.18;54.28
6668;BME280;3370;47.712;9.082;2024-02-21T13:05:02;97296.50;;;13.11;54.00
6668;BME280;3370;47.712;9.082;2024-02-21T13:07:48;97288.09;;;12.90;56.18
6668;BME280;3370;47.712;9.082;2024-02-21T13:10:35;97286.56;;;12.51;55.37
6668;BME280;3370;47.712;9.082;2024-02-21T13:13:21;97271.38;;;12.27;56.79
6668;BME280;3370;47.712;9.082;2024-02-21T13:16:07;97268.50;;;12.16;56.10
6668;BME280;3370;47.712;9.082;2024-02-21T13:18:53;97255.47;;;12.36;57.00
6668;BME280;3370;47.712;9.082;2024-02-21T13:21:39;97250.63;;;12.65;54.83
6668;BME280;3370;47.712;9.082;2024-02-21T13:24:25;97232.97;;;12.91;54.87
6668;BME280;3370;47.712;9.082;2024-02-21T13:27:12;97227.13;;;12.87;55.35
6668;BME280;3370;47.712;9.082;2024-02-21T13:29:58;97226.31;;;12.87;54.43
6668;BME280;3370;47.712;9.082;2024-02-21T13:32:46;97218.13;;;12.78;54.56
6668;BME280;3370;47.712;9.082;2024-02-21T13:35:32;97216.84;;;12.70;54.70
6668;BME280;3370;47.712;9.082;2024-02-21T13:38:18;97202.38;;;13.00;54.63
6668;BME280;3370;47.712;9.082;2024-02-21T13:41:05;97190.78;;;13.41;54.58
6668;BME280;3370;47.712;9.082;2024-02-21T13:43:54;97184.78;;;13.72;53.74
6668;BME280;3370;47.712;9.082;2024-02-21T13:46:40;97183.81;;;13.89;53.31
6668;BME280;3370;47.712;9.082;2024-02-21T13:49:26;97167.38;;;13.90;54.17
6668;BME280;3370;47.712;9.082;2024-02-21T13:52:14;97170.53;;;13.95;52.63
6668;BME280;3370;47.712;9.082;2024-02-21T13:55:00;97165.88;;;14.47;53.27
6668;BME280;3370;47.712;9.082;2024-02-21T13:57:46;97154.00;;;14.87;51.76
6668;BME280;3370;47.712;9.082;2024-02-21T14:00:32;97152.53;;;14.83;50.87
6668;BME280;3370;47.712;9.082;2024-02-21T14:03:20;97148.31;;;14.52;50.71
6668;BME280;3370;47.712;9.082;2024-02-21T14:06:06;97154.13;;;14.27;50.85
6668;BME280;3370;47.712;9.082;2024-02-21T14:08:53;97148.47;;;14.20;51.09
6668;BME280;3370;47.712;9.082;2024-02-21T14:11:39;97134.25;;;13.67;51.54
6668;BME280;3370;47.712;9.082;2024-02-21T14:14:27;97135.16;;;13.18;51.62
6668;BME280;3370;47.712;9.082;2024-02-21T14:17:13;97130.78;;;13.36;51.86
6668;BME280;3370;47.712;9.082;2024-02-21T14:19:59;97124.38;;;13.43;52.11
6668;BME280;3370;47.712;9.082;2024-02-21T14:22:45;97119.13;;;13.45;49.99
6668;BME280;3370;47.712;9.082;2024-02-21T14:25:31;97116.47;;;13.14;51.94
6668;BME280;3370;47.712;9.082;2024-02-21T14:28:19;97113.75;;;13.16;52.60
6668;BME280;3370;47.712;9.082;2024-02-21T14:31:05;97103.56;;;13.14;52.85
6668;BME280;3370;47.712;9.082;2024-02-21T14:33:53;97100.88;;;13.00;51.53
6668;BME280;3370;47.712;9.082;2024-02-21T14:36:39;97112.06;;;12.67;54.29
6668;BME280;3370;47.712;9.082;2024-02-21T14:39:26;97109.22;;;12.56;53.50
6668;BME280;3370;47.712;9.082;2024-02-21T14:42:12;97101.16;;;12.62;55.16
6668;BME280;3370;47.712;9.082;2024-02-21T14:44:58;97099.53;;;12.43;55.17
6668;BME280;3370;47.712;9.082;2024-02-21T14:47:49;97095.03;;;12.47;55.69
6668;BME280;3370;47.712;9.082;2024-02-21T14:50:35;97108.34;;;12.39;54.37
6668;BME280;3370;47.712;9.082;2024-02-21T14:53:21;97100.78;;;12.19;55.20
6668;BME280;3370;47.712;9.082;2024-02-21T14:56:13;97103.09;;;12.07;54.82
6668;BME280;3370;47.712;9.082;2024-02-21T14:59:00;97101.81;;;11.99;54.98
6668;BME280;3370;47.712;9.082;2024-02-21T15:01:46;97094.94;;;11.80;54.74
6668;BME280;3370;47.712;9.082;2024-02-21T15:04:33;97094.41;;;11.74;55.07
6668;BME280;3370;47.712;9.082;2024-02-21T15:07:20;97084.41;;;11.50;55.25
6668;BME280;3370;47.712;9.082;2024-02-21T15:10:10;97096.03;;;11.40;56.78
6668;BME280;3370;47.712;9.082;2024-02-21T15:12:57;97086.75;;;11.18;57.00
6668;BME280;3370;47.712;9.082;2024-02-21T15:15:43;97080.22;;;11.11;58.48
6668;BME280;3370;47.712;9.082;2024-02-21T15:18:29;97077.38;;;11.17;60.86
6668;BME280;3370;47.712;9.082;2024-02-21T15:21:19;97081.31;;;11.24;63.31